createdAt,value
2023-01-13T00:01:23.404Z,97918.60
2023-01-13T00:04:26.697Z,97910.16
2023-01-13T00:07:29.852Z,97900.55
2023-01-13T00:10:34.658Z,97900.02
2023-01-13T00:13:38.595Z,97894.02
2023-01-13T00:16:41.776Z,97896.83
2023-01-13T00:19:45.061Z,97901.13
2023-01-13T00:22:48.269Z,97907.77
2023-01-13T00:25:51.411Z,97905.02
2023-01-13T00:28:59.248Z,97904.95
2023-01-13T00:32:02.345Z,97907.75
2023-01-13T00:35:06.173Z,97908.46
2023-01-13T00:38:09.312Z,97903.92
2023-01-13T00:41:14.465Z,97906.13
2023-01-13T00:44:17.752Z,97903.64
2023-01-13T00:47:20.871Z,97900.36
2023-01-13T00:50:24.083Z,97902.39
2023-01-13T00:53:28.751Z,97904.65
2023-01-13T00:56:40.148Z,97899.50
2023-01-13T00:59:44.085Z,97896.38
2023-01-13T01:02:47.542Z,97898.58
2023-01-13T01:05:50.768Z,97893.98
2023-01-13T01:08:55.257Z,97900.95
2023-01-13T01:11:59.959Z,97899.16
2023-01-13T01:15:06.074Z,97896.91
2023-01-13T01:18:09.393Z,97899.73
2023-01-13T01:21:14.179Z,97894.98
2023-01-13T01:24:17.443Z,97885.05
2023-01-13T01:27:20.561Z,97882.41
2023-01-13T01:30:23.734Z,97872.59
2023-01-13T01:33:27.038Z,97876.10
2023-01-13T01:36:30.575Z,97862.11
2023-01-13T01:39:33.784Z,97853.86
2023-01-13T01:42:55.558Z,97849.80
2023-01-13T01:45:58.740Z,97845.42
2023-01-13T01:49:14.046Z,97842.45
2023-01-13T01:52:39.259Z,97849.86
2023-01-13T01:55:42.671Z,97846.66
2023-01-13T01:58:51.195Z,97843.85
2023-01-13T02:01:54.587Z,97839.71
2023-01-13T02:04:59.318Z,97838.94
2023-01-13T02:08:03.733Z,97834.24
2023-01-13T02:11:27.338Z,97830.20
2023-01-13T02:14:31.839Z,97825.81
2023-01-13T02:18:02.377Z,97818.25
2023-01-13T02:21:17.428Z,97804.72
2023-01-13T02:24:55.925Z,97804.25
2023-01-13T02:28:08.118Z,97801.65
2023-01-13T02:31:33.980Z,97798.98
2023-01-13T02:34:42.577Z,97804.20
2023-01-13T02:37:46.920Z,97812.02
2023-01-13T02:41:25.982Z,97807.64
2023-01-13T02:44:36.455Z,97795.84
2023-01-13T02:47:41.987Z,97800.35
2023-01-13T02:50:51.063Z,97793.78
2023-01-13T02:54:01.158Z,97793.94
2023-01-13T02:57:08.648Z,97793.23
2023-01-13T03:00:13.508Z,97784.95
2023-01-13T03:03:16.579Z,97786.05
2023-01-13T03:06:46.207Z,97786.05
2023-01-13T03:10:08.501Z,97784.72
2023-01-13T03:13:36.793Z,97779.55
2023-01-13T03:17:18.568Z,97786.27
2023-01-13T03:20:32.528Z,97785.42
2023-01-13T03:23:50.829Z,97773.71
2023-01-13T03:26:59.602Z,97773.02
2023-01-13T03:30:17.162Z,97773.23
2023-01-13T03:33:33.364Z,97768.33
2023-01-13T03:36:40.507Z,97767.08
2023-01-13T03:39:50.419Z,97773.87
2023-01-13T03:44:01.561Z,97769.02
2023-01-13T03:47:07.591Z,97773.94
2023-01-13T03:50:19.687Z,97770.27
2023-01-13T03:53:53.009Z,97770.10
2023-01-13T03:57:05.197Z,97772.69
2023-01-13T04:00:12.656Z,97770.35
2023-01-13T04:03:25.399Z,97766.76
2023-01-13T04:07:00.570Z,97763.58
2023-01-13T04:10:07.753Z,97765.20
2023-01-13T04:13:14.491Z,97766.77
2023-01-13T04:16:17.833Z,97768.41
2023-01-13T04:19:21.647Z,97768.97
2023-01-13T04:22:24.761Z,97764.83
2023-01-13T04:25:27.833Z,97754.91
2023-01-13T04:28:31.118Z,97748.05
2023-01-13T04:31:34.249Z,97754.30
2023-01-13T04:34:37.410Z,97754.45
2023-01-13T04:37:40.506Z,97739.38
2023-01-13T04:40:44.177Z,97734.54
2023-01-13T04:43:47.263Z,97740.10
2023-01-13T04:46:50.600Z,97742.30
2023-01-13T04:49:53.731Z,97741.19
2023-01-13T04:52:57.185Z,97746.35
2023-01-13T04:56:00.364Z,97747.52
2023-01-13T04:59:03.571Z,97754.09
2023-01-13T05:02:09.088Z,97751.52
2023-01-13T05:05:12.368Z,97746.29
2023-01-13T05:08:15.598Z,97743.25
2023-01-13T05:11:37.578Z,97739.19
2023-01-13T05:14:58.899Z,97742.57
2023-01-13T05:18:08.076Z,97756.16
2023-01-13T05:21:31.319Z,97760.08
2023-01-13T05:24:52.965Z,97757.97
2023-01-13T05:27:58.210Z,97758.92
2023-01-13T05:31:01.677Z,97755.01
2023-01-13T05:34:04.820Z,97755.73
2023-01-13T05:37:08.387Z,97757.68
2023-01-13T05:40:32.572Z,97761.27
2023-01-13T05:43:35.781Z,97761.98
2023-01-13T05:46:38.893Z,97755.57
2023-01-13T05:49:42.326Z,97754.48
2023-01-13T05:52:45.508Z,97756.14
2023-01-13T05:55:49.766Z,97758.88
2023-01-13T05:58:52.872Z,97756.52
2023-01-13T06:01:55.983Z,97763.56
2023-01-13T06:04:59.141Z,97760.73
2023-01-13T06:08:04.272Z,97754.89
2023-01-13T06:11:07.837Z,97758.79
2023-01-13T06:14:11.030Z,97753.17
2023-01-13T06:17:16.304Z,97752.09
2023-01-13T06:20:20.009Z,97755.29
2023-01-13T06:23:24.052Z,97763.02
2023-01-13T06:26:29.131Z,97761.21
2023-01-13T06:29:32.313Z,97759.12
2023-01-13T06:32:40.509Z,97763.71
2023-01-13T06:35:49.620Z,97766.63
2023-01-13T06:38:57.893Z,97761.39
2023-01-13T06:42:20.161Z,97762.71
2023-01-13T06:45:25.008Z,97761.31
2023-01-13T06:48:33.210Z,97755.75
2023-01-13T06:51:37.043Z,97757.08
2023-01-13T06:54:40.194Z,97761.45
2023-01-13T06:57:58.101Z,97766.22
2023-01-13T07:01:01.532Z,97772.01
2023-01-13T07:04:04.973Z,97770.36
2023-01-13T07:07:08.388Z,97769.13
2023-01-13T07:10:22.239Z,97762.80
2023-01-13T07:13:43.832Z,97759.67
2023-01-13T07:16:47.056Z,97759.90
2023-01-13T07:19:50.687Z,97761.00
2023-01-13T07:22:55.015Z,97762.64
2023-01-13T07:25:59.710Z,97768.98
2023-01-13T07:29:08.887Z,97769.77
2023-01-13T07:32:17.262Z,97767.65
2023-01-13T07:35:23.170Z,97771.73
2023-01-13T07:38:27.211Z,97764.38
2023-01-13T07:41:48.737Z,97764.22
2023-01-13T07:44:51.967Z,97769.38
2023-01-13T07:47:55.214Z,97764.70
2023-01-13T07:51:06.136Z,97765.95
2023-01-13T07:54:09.319Z,97768.62
2023-01-13T07:57:12.416Z,97764.70
2023-01-13T08:00:18.242Z,97763.93
2023-01-13T08:03:23.117Z,97766.20
2023-01-13T08:06:27.046Z,97764.39
2023-01-13T08:09:37.075Z,97766.91
2023-01-13T08:12:58.613Z,97771.60
2023-01-13T08:16:14.597Z,97770.90
2023-01-13T08:19:17.825Z,97778.73
2023-01-13T08:22:21.149Z,97777.12
2023-01-13T08:25:26.609Z,97777.61
2023-01-13T08:28:30.365Z,97775.89
2023-01-13T08:31:33.665Z,97777.55
2023-01-13T08:34:43.247Z,97780.67
2023-01-13T08:37:47.661Z,97779.50
2023-01-13T08:40:51.068Z,97782.40
2023-01-13T08:44:04.784Z,97784.59
2023-01-13T08:47:08.217Z,97781.95
2023-01-13T08:50:12.321Z,97782.95
2023-01-13T08:53:15.722Z,97789.22
2023-01-13T08:56:23.559Z,97791.36
2023-01-13T08:59:28.515Z,97789.09
2023-01-13T09:02:52.384Z,97792.00
2023-01-13T09:06:20.134Z,97801.30
2023-01-13T09:09:31.404Z,97806.02
2023-01-13T09:13:07.276Z,97798.73
2023-01-13T09:16:20.459Z,97797.89
2023-01-13T09:19:23.848Z,97787.16
2023-01-13T09:22:27.682Z,97784.98
2023-01-13T09:25:36.787Z,97787.24
2023-01-13T09:28:39.997Z,97780.14
2023-01-13T09:31:44.323Z,97772.63
2023-01-13T09:35:06.721Z,97766.91
2023-01-13T09:38:10.065Z,97770.50
2023-01-13T09:41:53.351Z,97774.72
2023-01-13T09:45:19.860Z,97765.48
2023-01-13T09:48:52.262Z,97754.91
2023-01-13T09:52:27.100Z,97751.77
2023-01-13T09:55:37.013Z,97750.05
2023-01-13T09:58:41.605Z,97756.63
2023-01-13T10:02:00.405Z,97756.23
2023-01-13T10:05:11.964Z,97749.18
2023-01-13T10:08:29.840Z,97751.91
2023-01-13T10:11:59.415Z,97753.70
2023-01-13T10:15:11.403Z,97751.11
2023-01-13T10:18:44.969Z,97746.02
2023-01-13T10:22:14.794Z,97747.10
2023-01-13T10:25:42.273Z,97749.61
2023-01-13T10:28:56.973Z,97745.77
2023-01-13T10:32:03.680Z,97750.14
2023-01-13T10:36:03.869Z,97749.60
2023-01-13T10:39:18.408Z,97740.66
2023-01-13T10:42:24.804Z,97731.80
2023-01-13T10:45:29.096Z,97725.83
2023-01-13T10:49:03.672Z,97723.23
2023-01-13T10:52:26.974Z,97717.52
2023-01-13T10:55:40.428Z,97712.12
2023-01-13T10:58:44.706Z,97713.98
2023-01-13T11:02:33.748Z,97707.39
2023-01-13T11:05:37.231Z,97701.58
2023-01-13T11:08:46.351Z,97711.76
2023-01-13T11:11:56.007Z,97710.19
2023-01-13T11:15:39.345Z,97708.30
2023-01-13T11:19:40.487Z,97707.20
2023-01-13T11:23:16.548Z,97708.59
2023-01-13T11:27:29.431Z,97701.94
2023-01-13T11:30:55.997Z,97701.27
2023-01-13T11:34:13.185Z,97698.05
2023-01-13T11:37:23.805Z,97693.25
2023-01-13T11:40:37.569Z,97686.73
2023-01-13T11:44:20.341Z,97682.86
2023-01-13T11:47:28.820Z,97678.70
2023-01-13T11:50:39.833Z,97689.44
2023-01-13T11:54:22.572Z,97683.69
2023-01-13T11:57:35.058Z,97684.65
2023-01-13T12:00:56.579Z,97678.90
2023-01-13T12:04:18.118Z,97677.62
2023-01-13T12:07:27.544Z,97676.59
2023-01-13T12:10:53.901Z,97674.10
2023-01-13T12:14:29.696Z,97669.41
2023-01-13T12:21:32.380Z,97665.55
2023-01-13T12:24:52.146Z,97660.96
2023-01-13T12:28:10.668Z,97657.75
2023-01-13T12:31:19.880Z,97664.45
2023-01-13T12:34:48.536Z,97665.48
2023-01-13T12:38:05.754Z,97669.20
2023-01-13T12:41:27.594Z,97670.95
2023-01-13T12:44:32.148Z,97667.27
2023-01-13T12:57:27.087Z,97676.45
2023-01-13T13:00:41.067Z,97678.58
2023-01-13T13:13:49.372Z,97688.24
2023-01-13T13:17:01.650Z,97686.84
2023-01-13T13:24:15.386Z,97679.78
2023-01-13T13:27:38.563Z,97685.20
2023-01-13T13:30:51.632Z,97686.93
2023-01-13T13:34:06.818Z,97688.42
2023-01-13T13:38:03.848Z,97687.96
2023-01-13T13:42:12.184Z,97685.61
2023-01-13T13:49:16.508Z,97691.20
2023-01-13T13:52:41.766Z,97695.20
2023-01-13T13:56:00.224Z,97695.52
2023-01-13T13:59:04.492Z,97690.91
2023-01-13T14:02:30.983Z,97693.26
2023-01-13T14:06:22.138Z,97685.11
2023-01-13T14:09:45.222Z,97684.26
2023-01-13T14:12:54.618Z,97687.72
2023-01-13T14:16:21.004Z,97690.46
2023-01-13T14:19:53.183Z,97694.45
2023-01-13T14:23:01.751Z,97696.66
2023-01-13T14:26:12.997Z,97690.33
2023-01-13T14:29:30.839Z,97691.50
2023-01-13T14:32:38.223Z,97691.12
2023-01-13T14:36:16.461Z,97700.52
2023-01-13T14:39:45.342Z,97706.86
2023-01-13T14:43:00.452Z,97708.59
2023-01-13T14:46:09.702Z,97709.15
2023-01-13T14:49:24.018Z,97716.98
2023-01-13T14:52:51.462Z,97724.18
2023-01-13T14:55:54.795Z,97722.86
2023-01-13T14:59:45.639Z,97726.93
2023-01-13T15:02:58.411Z,97733.44
2023-01-13T15:06:28.559Z,97732.02
2023-01-13T15:09:45.897Z,97732.42
2023-01-13T15:13:07.246Z,97737.20
2023-01-13T15:16:42.320Z,97735.87
2023-01-13T15:19:45.843Z,97732.52
2023-01-13T15:22:59.750Z,97729.14
2023-01-13T15:26:39.777Z,97732.81
2023-01-13T15:33:34.661Z,97742.70
2023-01-13T15:37:30.475Z,97741.91
2023-01-13T15:40:33.733Z,97738.70
2023-01-13T15:45:20.916Z,97746.38
2023-01-13T15:59:24.103Z,97761.09
2023-01-13T16:02:27.739Z,97771.91
2023-01-13T16:05:37.563Z,97769.16
2023-01-13T16:08:40.907Z,97771.36
2023-01-13T16:11:51.580Z,97770.41
2023-01-13T16:14:55.115Z,97773.39
2023-01-13T16:18:04.249Z,97774.09
2023-01-13T16:24:32.328Z,97783.02
2023-01-13T16:27:35.694Z,97773.55
2023-01-13T16:30:57.551Z,97779.89
2023-01-13T16:34:02.551Z,97779.34
2023-01-13T16:37:40.739Z,97770.73
2023-01-13T16:40:44.156Z,97768.86
2023-01-13T16:44:23.958Z,97775.27
2023-01-13T16:47:27.307Z,97778.58
2023-01-13T16:50:56.471Z,97783.02
2023-01-13T16:53:59.839Z,97782.02
2023-01-13T16:57:03.713Z,97781.84
2023-01-13T17:00:07.985Z,97786.63
2023-01-13T17:03:12.222Z,97782.48
2023-01-13T17:07:00.467Z,97786.16
2023-01-13T17:10:36.170Z,97787.41
2023-01-13T17:13:41.772Z,97787.89
2023-01-13T17:16:49.608Z,97786.94
2023-01-13T17:19:53.395Z,97779.81
2023-01-13T17:22:58.697Z,97779.83
2023-01-13T17:26:02.200Z,97777.86
2023-01-13T17:33:58.138Z,97790.47
2023-01-13T17:40:26.601Z,97789.21
2023-01-13T17:43:37.290Z,97787.73
2023-01-13T17:46:42.516Z,97788.89
2023-01-13T17:50:19.731Z,97798.21
2023-01-13T17:53:27.229Z,97803.30
2023-01-13T17:56:33.764Z,97813.17
2023-01-13T17:59:46.370Z,97814.49
2023-01-13T18:02:56.556Z,97831.31
2023-01-13T18:06:08.007Z,97845.88
2023-01-13T18:09:11.733Z,97852.38
2023-01-13T18:12:15.038Z,97854.79
2023-01-13T18:15:18.127Z,97858.77
2023-01-13T18:18:21.300Z,97857.21
2023-01-13T18:21:45.319Z,97865.65
2023-01-13T18:25:06.873Z,97867.13
2023-01-13T18:28:10.017Z,97856.40
2023-01-13T18:31:13.268Z,97847.33
2023-01-13T18:34:16.382Z,97843.96
2023-01-13T18:37:19.553Z,97847.63
2023-01-13T18:40:22.782Z,97848.27
2023-01-13T18:43:26.249Z,97847.39
2023-01-13T18:46:29.453Z,97852.39
2023-01-13T18:49:32.733Z,97862.08
2023-01-13T18:52:36.441Z,97864.52
2023-01-13T18:55:39.585Z,97867.25
2023-01-13T18:58:51.739Z,97872.34
2023-01-13T19:01:55.209Z,97872.48
2023-01-13T19:04:59.080Z,97874.91
2023-01-13T19:08:02.939Z,97881.41
2023-01-13T19:11:07.383Z,97881.80
2023-01-13T19:14:10.486Z,97887.75
2023-01-13T19:17:15.300Z,97885.02
2023-01-13T19:20:19.929Z,97890.02
2023-01-13T19:23:23.087Z,97890.64
2023-01-13T19:26:26.124Z,97893.98
2023-01-13T19:29:33.174Z,97901.73
2023-01-13T19:32:37.033Z,97901.65
2023-01-13T19:35:40.525Z,97908.20
2023-01-13T19:38:43.699Z,97915.10
2023-01-13T19:42:05.600Z,97919.23
2023-01-13T19:45:29.371Z,97914.30
2023-01-13T19:48:32.872Z,97895.37
2023-01-13T19:51:35.951Z,97896.46
2023-01-13T19:54:39.113Z,97904.73
2023-01-13T19:57:43.490Z,97905.20
2023-01-13T20:00:48.432Z,97904.34
2023-01-13T20:03:51.533Z,97905.41
2023-01-13T20:06:55.454Z,97914.19
2023-01-13T20:09:58.624Z,97915.66
2023-01-13T20:13:01.920Z,97917.30
2023-01-13T20:16:05.501Z,97913.31
2023-01-13T20:19:08.738Z,97911.97
2023-01-13T20:22:12.273Z,97920.64
2023-01-13T20:25:17.517Z,97926.95
2023-01-13T20:28:20.751Z,97932.27
2023-01-13T20:31:24.014Z,97934.45
2023-01-13T20:34:27.568Z,97938.04
2023-01-13T20:37:31.043Z,97944.92
2023-01-13T20:40:34.216Z,97949.13
2023-01-13T20:43:37.347Z,97957.23
2023-01-13T20:46:44.736Z,97967.10
2023-01-13T20:49:48.023Z,97968.27
2023-01-13T20:52:52.623Z,97976.25
2023-01-13T20:55:55.921Z,97977.96
2023-01-13T20:58:59.156Z,97977.41
2023-01-13T21:02:02.966Z,97982.27
2023-01-13T21:05:06.461Z,97986.83
2023-01-13T21:08:09.518Z,97983.79
2023-01-13T21:11:14.960Z,97984.10
2023-01-13T21:14:42.057Z,97990.81
2023-01-13T21:18:04.807Z,97998.70
2023-01-13T21:21:13.951Z,98002.89
2023-01-13T21:24:17.079Z,98000.94
2023-01-13T21:27:20.348Z,98002.11
2023-01-13T21:30:23.446Z,98001.26
2023-01-13T21:33:26.788Z,98009.14
2023-01-13T21:36:29.904Z,98009.53
2023-01-13T21:39:35.619Z,98013.67
2023-01-13T21:42:57.351Z,98016.57
2023-01-13T21:46:19.177Z,98022.59
2023-01-13T21:49:22.326Z,98029.70
2023-01-13T21:52:26.166Z,98032.75
2023-01-13T21:55:29.917Z,98034.80
2023-01-13T21:58:33.174Z,98039.48
2023-01-13T22:01:36.364Z,98037.59
2023-01-13T22:05:00.858Z,98035.09
2023-01-13T22:08:05.140Z,98039.09
2023-01-13T22:11:08.385Z,98038.38
2023-01-13T22:14:13.851Z,98034.93
2023-01-13T22:17:17.931Z,98034.55
2023-01-13T22:20:22.769Z,98036.27
2023-01-13T22:23:26.143Z,98038.08
2023-01-13T22:26:29.317Z,98035.11
2023-01-13T22:29:32.377Z,98040.04
2023-01-13T22:32:38.011Z,98043.87
2023-01-13T22:35:41.111Z,98041.52
2023-01-13T22:38:44.432Z,98039.16
2023-01-13T22:41:47.498Z,98041.67
2023-01-13T22:44:50.660Z,98045.48
2023-01-13T22:47:53.795Z,98050.19
2023-01-13T22:50:56.921Z,98052.05
2023-01-13T22:54:00.051Z,98053.64
2023-01-13T22:57:03.191Z,98057.60
2023-01-13T23:00:06.814Z,98060.41
2023-01-13T23:03:09.951Z,98061.04
2023-01-13T23:06:13.499Z,98062.98
2023-01-13T23:09:16.638Z,98063.91
2023-01-13T23:12:19.735Z,98069.77
2023-01-13T23:15:22.858Z,98069.29
2023-01-13T23:18:26.429Z,98059.49
2023-01-13T23:21:32.455Z,98062.00
2023-01-13T23:24:35.638Z,98069.10
2023-01-13T23:27:38.713Z,98069.80
2023-01-13T23:30:41.810Z,98071.98
2023-01-13T23:33:45.274Z,98078.15
2023-01-13T23:36:48.388Z,98083.07
2023-01-13T23:39:51.571Z,98088.91
2023-01-13T23:42:54.659Z,98092.83
2023-01-13T23:46:07.546Z,98096.73
2023-01-13T23:49:10.741Z,98096.27
2023-01-13T23:52:13.912Z,98093.59
2023-01-13T23:55:16.976Z,98089.84
2023-01-13T23:58:20.449Z,98089.90
